Time;durP1;ratioP1;P1;durP2;ratioP2;P2;SDS_P1;SDS_P2;PMS_P1;PMS_P2;Temp;Humidity;BMP_temperature;BMP_pressure;BME280_temperature;BME280_humidity;BME280_pressure;Samples;Min_cycle;Max_cycle;Signal;HPM_P1;HPM_P2
2021/12/27 00:07:37;;;;;;;14.75;5.15;;;2.80;99.90;;;;;;20785021;28;20519;-44
2021/12/27 00:17:39;;;;;;;10.32;4.40;;;2.90;99.90;;;;;;20786337;28;20541;-44
2021/12/27 00:27:41;;;;;;;10.15;3.65;;;2.90;99.90;;;;;;20788239;28;20110;-43
2021/12/27 00:37:42;;;;;;;11.63;4.05;;;2.90;99.90;;;;;;20784479;28;20045;-44
2021/12/27 00:47:44;;;;;;;12.30;4.03;;;2.90;99.90;;;;;;20784818;28;20049;-44
2021/12/27 00:57:46;;;;;;;10.35;4.20;;;2.90;99.90;;;;;;20785599;28;20324;-43
2021/12/27 01:07:47;;;;;;;8.95;3.22;;;2.90;99.90;;;;;;20783681;28;20033;-43
2021/12/27 01:17:51;;;;;;;9.90;3.88;;;3.00;99.90;;;;;;20784720;28;20044;-44
2021/12/27 01:27:52;;;;;;;10.93;3.90;;;3.00;99.90;;;;;;20767746;28;20636;-43
2021/12/27 01:37:54;;;;;;;11.88;3.92;;;3.10;99.90;;;;;;20787481;28;20542;-43
2021/12/27 01:47:55;;;;;;;8.88;4.15;;;3.10;99.90;;;;;;20798926;28;20029;-44
2021/12/27 01:58:00;;;;;;;12.63;4.50;;;3.20;99.90;;;;;;20766877;28;20095;-44
2021/12/27 02:08:02;;;;;;;12.32;4.25;;;3.20;99.90;;;;;;20794531;28;20040;-44
2021/12/27 02:18:05;;;;;;;7.93;3.53;;;3.30;99.90;;;;;;20797570;28;20049;-43
2021/12/27 02:28:08;;;;;;;8.82;3.17;;;3.30;99.90;;;;;;20797321;28;20158;-43
2021/12/27 02:38:13;;;;;;;10.50;2.80;;;3.40;99.90;;;;;;20792562;28;20088;-44
2021/12/27 02:48:16;;;;;;;10.43;3.35;;;3.40;99.90;;;;;;20794170;28;20440;-44
2021/12/27 02:58:17;;;;;;;12.18;3.92;;;3.30;99.90;;;;;;20794243;28;20092;-44
2021/12/27 03:08:19;;;;;;;10.98;3.58;;;3.40;99.90;;;;;;20790323;28;20042;-44
2021/12/27 03:18:21;;;;;;;7.18;3.17;;;3.40;99.90;;;;;;20771918;28;20045;-44
2021/12/27 03:28:23;;;;;;;10.20;3.47;;;3.40;99.90;;;;;;20792745;28;20053;-44
2021/12/27 03:38:24;;;;;;;17.15;4.70;;;3.50;99.90;;;;;;20788924;28;20964;-43
2021/12/27 03:48:25;;;;;;;17.25;4.70;;;3.50;99.90;;;;;;20789037;28;20044;-44
2021/12/27 03:58:45;;;;;;;8.63;3.35;;;3.50;99.90;;;;;;20769997;28;20099;-44
2021/12/27 04:08:47;;;;;;;11.85;3.85;;;3.60;99.90;;;;;;20782705;28;20091;-43
2021/12/27 04:18:48;;;;;;;14.82;3.70;;;3.60;99.90;;;;;;20759771;28;20138;-43
2021/12/27 04:28:50;;;;;;;20.17;3.70;;;3.60;99.90;;;;;;20789454;28;20057;-44
2021/12/27 04:38:51;;;;;;;11.07;3.40;;;3.70;99.90;;;;;;20785193;28;20099;-44
2021/12/27 04:48:55;;;;;;;11.75;3.75;;;3.70;99.90;;;;;;20784950;28;20034;-44
2021/12/27 04:58:56;;;;;;;10.27;3.65;;;3.80;99.90;;;;;;20786239;28;20053;-43
2021/12/27 05:08:58;;;;;;;7.45;2.67;;;3.80;99.90;;;;;;20782033;28;20044;-43
2021/12/27 05:18:59;;;;;;;10.25;2.80;;;3.90;99.90;;;;;;20775418;28;20056;-44
2021/12/27 05:29:00;;;;;;;12.68;4.38;;;3.90;99.90;;;;;;20800544;28;20033;-44
2021/12/27 05:39:03;;;;;;;12.40;3.30;;;4.00;99.90;;;;;;20773444;28;20502;-44
2021/12/27 05:49:04;;;;;;;10.80;3.88;;;4.00;99.90;;;;;;20797335;28;20037;-44
2021/12/27 05:59:05;;;;;;;11.73;3.53;;;4.00;99.90;;;;;;20797185;28;20052;-44
2021/12/27 06:09:07;;;;;;;11.10;3.08;;;4.10;99.90;;;;;;20796074;28;20041;-43
2021/12/27 06:19:08;;;;;;;12.57;3.42;;;4.30;99.90;;;;;;20767494;28;20037;-43
2021/12/27 06:29:09;;;;;;;9.57;3.55;;;4.20;99.90;;;;;;20794749;28;20039;-45
2021/12/27 06:39:11;;;;;;;13.27;4.65;;;4.30;99.90;;;;;;20793282;28;20598;-43
2021/12/27 06:49:12;;;;;;;11.35;3.75;;;4.40;99.90;;;;;;20770608;28;20053;-43
2021/12/27 06:59:14;;;;;;;10.90;2.85;;;4.50;99.90;;;;;;20792510;28;20037;-44
2021/12/27 07:09:15;;;;;;;15.95;4.15;;;4.50;99.90;;;;;;20795385;28;20069;-43
2021/12/27 07:19:16;;;;;;;14.68;3.88;;;4.50;99.90;;;;;;20790831;28;20072;-44
2021/12/27 07:29:17;;;;;;;12.68;4.15;;;4.60;99.90;;;;;;20791667;28;20420;-44
2021/12/27 07:39:20;;;;;;;15.30;4.88;;;4.70;99.90;;;;;;20789256;28;20041;-44
2021/12/27 07:49:23;;;;;;;10.50;4.10;;;4.70;99.90;;;;;;20789748;28;20069;-44
2021/12/27 07:59:25;;;;;;;11.68;3.45;;;4.70;99.90;;;;;;20790838;28;20045;-44
2021/12/27 08:09:26;;;;;;;8.77;3.05;;;4.70;99.90;;;;;;20786415;28;20033;-43
2021/12/27 08:19:27;;;;;;;14.40;4.15;;;4.80;99.90;;;;;;20788427;28;20403;-44
2021/12/27 08:29:29;;;;;;;15.38;4.22;;;4.90;99.90;;;;;;20796079;28;20219;-44
2021/12/27 08:39:30;;;;;;;16.05;4.22;;;4.90;99.90;;;;;;20785639;28;20042;-44
2021/12/27 08:49:32;;;;;;;14.23;3.88;;;5.00;99.90;;;;;;20765146;28;20038;-44
2021/12/27 08:59:33;;;;;;;12.27;4.00;;;5.00;99.90;;;;;;20786974;28;20045;-43
2021/12/27 09:09:34;;;;;;;10.45;3.63;;;5.00;99.90;;;;;;20784184;28;20542;-44
2021/12/27 09:19:35;;;;;;;12.68;5.20;;;5.10;99.90;;;;;;20755083;28;20042;-43
2021/12/27 09:29:37;;;;;;;16.10;4.75;;;5.20;99.90;;;;;;20786368;28;20052;-43
2021/12/27 09:39:38;;;;;;;12.57;3.85;;;5.20;99.90;;;;;;20765574;28;20495;-44
2021/12/27 09:49:40;;;;;;;10.88;3.45;;;5.40;99.90;;;;;;20781376;28;20030;-44
2021/12/27 09:59:41;;;;;;;16.40;4.65;;;5.50;99.90;;;;;;20792669;28;20081;-43
2021/12/27 10:09:43;;;;;;;13.68;4.45;;;5.60;99.90;;;;;;20795774;28;20050;-44
2021/12/27 10:19:44;;;;;;;19.98;5.35;;;5.60;99.90;;;;;;20796640;28;20037;-43
2021/12/27 10:29:46;;;;;;;14.32;4.30;;;5.70;99.90;;;;;;20763279;28;20041;-44
2021/12/27 10:39:51;;;;;;;13.27;4.40;;;5.90;99.90;;;;;;20775252;28;20276;-44
2021/12/27 10:49:54;;;;;;;12.18;5.30;;;6.00;99.90;;;;;;20792548;28;20033;-44
2021/12/27 11:00:18;;;;;;;12.25;5.07;;;6.00;99.90;;;;;;20792059;28;20041;-43
2021/12/27 11:10:20;;;;;;;14.60;5.05;;;6.20;99.90;;;;;;20775127;28;20041;-44
2021/12/27 11:20:22;;;;;;;11.02;3.60;;;6.30;99.90;;;;;;20791764;28;20049;-43
2021/12/27 11:30:29;;;;;;;14.35;4.97;;;6.30;99.90;;;;;;20784772;28;20072;-44
2021/12/27 11:40:46;;;;;;;18.57;5.50;;;6.30;99.90;;;;;;20769994;28;20519;-44
2021/12/27 11:51:10;;;;;;;12.13;4.87;;;6.40;99.90;;;;;;20768911;28;20355;-44
2021/12/27 12:01:22;;;;;;;10.25;4.95;;;6.40;99.90;;;;;;20779058;28;20440;-44
2021/12/27 12:11:32;;;;;;;12.80;3.97;;;6.40;99.90;;;;;;20780663;28;20038;-44
2021/12/27 12:21:33;;;;;;;12.60;5.25;;;6.50;99.90;;;;;;20784052;28;20448;-44
2021/12/27 12:31:34;;;;;;;11.57;4.10;;;6.60;99.90;;;;;;20766412;28;20041;-44
2021/12/27 12:41:35;;;;;;;12.80;5.25;;;6.60;99.90;;;;;;20767260;28;20405;-44
2021/12/27 12:51:42;;;;;;;13.77;5.68;;;6.70;99.90;;;;;;20737562;28;20063;-46
2021/12/27 13:02:08;;;;;;;7.43;3.95;;;6.80;99.90;;;;;;20772512;28;21174;-44
2021/12/27 13:12:11;;;;;;;7.75;3.92;;;6.90;99.90;;;;;;20766938;28;20859;-46
2021/12/27 13:22:12;;;;;;;9.32;4.07;;;7.10;99.90;;;;;;20760852;28;20030;-44
2021/12/27 13:32:14;;;;;;;10.07;3.70;;;7.40;99.90;;;;;;20751611;28;20045;-44
2021/12/27 13:42:15;;;;;;;7.47;4.20;;;7.30;99.90;;;;;;20768642;28;20042;-44
2021/12/27 13:52:18;;;;;;;9.40;3.85;;;7.30;99.90;;;;;;20776698;28;20072;-44
2021/12/27 14:02:19;;;;;;;5.53;3.30;;;7.30;99.90;;;;;;20785226;28;20034;-44
2021/12/27 14:12:22;;;;;;;11.65;3.83;;;7.30;99.90;;;;;;20759006;28;20048;-44
2021/12/27 14:22:24;;;;;;;6.50;3.67;;;7.30;99.90;;;;;;20783840;28;20037;-44
2021/12/27 14:32:25;;;;;;;8.02;3.83;;;7.30;99.90;;;;;;20781127;28;20041;-44
2021/12/27 14:42:26;;;;;;;8.82;3.65;;;7.30;99.90;;;;;;20781668;28;20540;-44
2021/12/27 14:52:27;;;;;;;9.95;3.67;;;7.40;99.90;;;;;;20763072;28;20674;-44
2021/12/27 15:02:28;;;;;;;7.40;2.88;;;7.50;99.90;;;;;;20779996;28;20083;-44
2021/12/27 15:12:29;;;;;;;6.05;3.15;;;7.40;99.90;;;;;;20779407;28;20044;-44
2021/12/27 15:22:31;;;;;;;7.68;3.00;;;7.40;99.90;;;;;;20764411;28;20128;-44
2021/12/27 15:32:34;;;;;;;9.80;3.17;;;7.40;99.90;;;;;;20774129;28;20440;-44
2021/12/27 15:42:35;;;;;;;8.07;4.50;;;7.50;99.90;;;;;;20770773;28;20555;-46
2021/12/27 15:52:37;;;;;;;8.05;4.10;;;7.50;99.90;;;;;;20741036;28;20042;-44
2021/12/27 16:02:38;;;;;;;6.47;2.83;;;7.60;99.90;;;;;;20774141;28;20061;-44
2021/12/27 16:12:39;;;;;;;6.15;2.70;;;7.50;99.90;;;;;;20769136;28;20045;-44
2021/12/27 16:22:42;;;;;;;8.23;2.85;;;7.50;99.90;;;;;;20768626;28;20090;-44
2021/12/27 16:32:46;;;;;;;9.23;4.72;;;7.50;99.90;;;;;;20766520;28;21067;-44
2021/12/27 16:42:49;;;;;;;10.77;3.95;;;7.60;99.90;;;;;;20763880;28;20564;-44
2021/12/27 16:52:52;;;;;;;11.57;4.00;;;7.60;99.90;;;;;;20727652;28;20029;-44
2021/12/27 17:02:55;;;;;;;7.78;3.05;;;7.60;99.90;;;;;;20735856;28;20503;-44
2021/12/27 17:13:01;;;;;;;9.77;3.35;;;7.70;99.90;;;;;;20781184;28;20412;-44
2021/12/27 17:23:03;;;;;;;13.15;3.80;;;7.80;99.90;;;;;;20760069;28;20029;-44
2021/12/27 17:33:04;;;;;;;8.57;3.08;;;7.70;99.90;;;;;;20753740;28;20048;-44
2021/12/27 17:43:05;;;;;;;7.28;3.25;;;7.80;99.90;;;;;;20758187;28;20041;-44
2021/12/27 17:53:08;;;;;;;7.25;3.38;;;7.70;99.90;;;;;;20759377;28;20454;-44
2021/12/27 18:03:11;;;;;;;8.43;3.78;;;7.70;99.90;;;;;;20784513;28;20160;-44
2021/12/27 18:13:13;;;;;;;7.63;3.92;;;7.80;99.90;;;;;;20771784;28;20041;-44
2021/12/27 18:23:14;;;;;;;7.80;2.88;;;7.80;99.90;;;;;;20752319;28;20099;-46
2021/12/27 18:33:16;;;;;;;10.30;3.00;;;7.80;99.90;;;;;;20743545;28;20060;-45
2021/12/27 18:43:17;;;;;;;8.05;3.00;;;7.70;99.90;;;;;;20798254;28;20640;-44
2021/12/27 18:53:19;;;;;;;7.97;2.55;;;7.80;99.90;;;;;;20790146;28;20103;-44
2021/12/27 19:03:20;;;;;;;8.93;2.88;;;7.80;99.90;;;;;;20800210;28;20037;-44
2021/12/27 19:13:21;;;;;;;8.60;3.20;;;7.80;99.90;;;;;;20795541;28;20038;-44
2021/12/27 19:23:22;;;;;;;9.85;3.97;;;7.80;99.90;;;;;;20797056;28;20092;-44
2021/12/27 19:33:25;;;;;;;8.07;3.03;;;7.90;99.90;;;;;;20772338;28;20042;-44
2021/12/27 19:43:26;;;;;;;7.88;3.80;;;7.90;99.90;;;;;;20800163;28;20452;-44
2021/12/27 19:53:29;;;;;;;6.85;2.95;;;8.10;99.90;;;;;;20770740;28;20128;-44
2021/12/27 20:03:30;;;;;;;6.00;3.25;;;8.20;99.90;;;;;;20794193;28;20045;-44
2021/12/27 20:13:34;;;;;;;7.07;3.38;;;8.30;99.90;;;;;;20800110;28;20037;-44
2021/12/27 20:23:35;;;;;;;9.00;3.25;;;8.40;99.90;;;;;;20792376;28;20037;-44
2021/12/27 20:33:37;;;;;;;8.40;3.97;;;8.50;99.90;;;;;;20784796;28;20041;-44
2021/12/27 20:43:38;;;;;;;7.47;3.17;;;8.40;99.90;;;;;;20789530;28;20081;-44
2021/12/27 20:53:39;;;;;;;10.10;3.50;;;8.40;99.90;;;;;;20792477;28;20111;-44
2021/12/27 21:03:40;;;;;;;9.10;4.20;;;8.50;99.90;;;;;;20791101;28;20089;-44
2021/12/27 21:13:44;;;;;;;10.35;4.25;;;8.50;99.90;;;;;;20792188;28;20487;-44
2021/12/27 21:23:45;;;;;;;10.05;4.90;;;8.50;99.90;;;;;;20784929;28;20033;-44
2021/12/27 21:33:46;;;;;;;10.52;4.43;;;8.70;99.90;;;;;;20770952;28;20041;-44
2021/12/27 21:43:48;;;;;;;11.82;4.65;;;8.70;99.90;;;;;;20772335;28;20087;-44
2021/12/27 21:53:49;;;;;;;11.45;4.88;;;8.80;99.90;;;;;;20751824;28;20128;-44
2021/12/27 22:03:50;;;;;;;19.10;6.45;;;8.80;99.90;;;;;;20776964;28;20501;-44
2021/12/27 22:13:51;;;;;;;13.98;5.03;;;8.80;99.90;;;;;;20748593;28;20164;-44
2021/12/27 22:23:52;;;;;;;10.85;5.40;;;8.90;99.90;;;;;;20775223;28;20136;-44
2021/12/27 22:33:54;;;;;;;20.27;6.82;;;9.00;99.90;;;;;;20773542;28;20045;-44
2021/12/27 22:43:55;;;;;;;15.63;6.03;;;9.00;99.90;;;;;;20768572;28;20064;-44
2021/12/27 22:53:56;;;;;;;20.73;6.30;;;9.00;99.90;;;;;;20774247;28;20049;-44
2021/12/27 23:03:57;;;;;;;12.13;5.60;;;9.10;99.90;;;;;;20738288;28;20047;-44
2021/12/27 23:14:00;;;;;;;15.82;6.05;;;9.20;99.90;;;;;;20777192;28;20160;-44
2021/12/27 23:24:01;;;;;;;14.13;5.35;;;9.10;99.90;;;;;;20777255;28;20051;-44
2021/12/27 23:34:06;;;;;;;13.23;5.07;;;9.10;99.90;;;;;;20773817;28;20044;-44
2021/12/27 23:44:07;;;;;;;13.05;5.18;;;9.00;99.90;;;;;;20771826;28;20029;-44
2021/12/27 23:54:09;;;;;;;8.27;3.63;;;9.00;99.90;;;;;;20769076;28;20091;-44
